^^
Station Historical Data
Daily Summary for September 8, 2017 Units:  Both    English   Metric
« Previous Day
Next Day »
Daily Weekly Monthly Yearly Custom
  High: Low: Average:
Temperature: TemperatureF °F /  -17.8 °C 52.2 °F /  11.2 °C 69.6 °F /  20.9 °C
Dew Point: DewpointF °F /  -17.8 °C 23.9 °F /  -4.5 °C 29.1 °F /  -1.6 °C
Humidity: Humidity% 12% 23%
Wind Speed: WindSpeedMPHmph /  0km/h - 1.2mph /  1.9km/h
Wind Gust: WindSpeedGustMPHmph /  0km/h - -
Wind- - SSE
Pressure: PressureIn in /  0 hPa 29.93 in /  1013.4 hPa -
Precipitation: 0.00 in /  0 mm    
Historical Graphs
 
 
Tabular Data for September 8, 2017
Time Temperature Dew Point Pressure Wind Wind Speed Wind Gust Humidity Rainfall Rate (Hourly) solar Conditions
TemperatureF °F /  -17.8 °C DewpointF °F /  -17.8 °C PressureInin /  0hPa Calm     Humidity% HourlyPrecipInin /  0mm SolarRadiationWatts/m^2 W/m2 Conditions
00:03 58.8 °F /  14.9 °C 24.1 °F /  -4.4 °C 30.31in /  1026.3hPa Calm     26% 0.00in /  0mm 0.0 W/m2
00:09 58.5 °F /  14.7 °C 24.6 °F /  -4.1 °C 30.31in /  1026.3hPa Calm     27% 0.00in /  0mm 0.0 W/m2
00:15 58.1 °F /  14.5 °C 24.3 °F /  -4.3 °C 30.30in /  1026hPa Calm     27% 0.00in /  0mm 0.0 W/m2
00:22 57.7 °F /  14.3 °C 24.8 °F /  -4 °C 30.31in /  1026.3hPa Calm     28% 0.00in /  0mm 0.0 W/m2
00:28 57.4 °F /  14.1 °C 24.6 °F /  -4.1 °C 30.31in /  1026.3hPa Calm     28% 0.00in /  0mm 0.0 W/m2
00:34 57.0 °F /  13.9 °C 24.3 °F /  -4.3 °C 30.30in /  1026hPa Calm   1.0mph /  1.6km/h 28% 0.00in /  0mm 0.0 W/m2
00:42 56.7 °F /  13.7 °C 24.8 °F /  -4 °C 30.31in /  1026.3hPa Calm     29% 0.00in /  0mm 0.0 W/m2
00:48 56.8 °F /  13.8 °C 25.0 °F /  -3.9 °C 30.31in /  1026.3hPa East 0.9mph /  1.4km/h 2.0mph /  3.2km/h 29% 0.00in /  0mm 0.0 W/m2
00:54 56.8 °F /  13.8 °C 24.1 °F /  -4.4 °C 30.30in /  1026hPa Calm   2.0mph /  3.2km/h 28% 0.00in /  0mm 0.0 W/m2
01:00 57.2 °F /  14 °C 24.4 °F /  -4.2 °C 30.30in /  1026hPa Calm   3.0mph /  4.8km/h 28% 0.00in /  0mm 0.0 W/m2
01:07 57.7 °F /  14.3 °C 23.9 °F /  -4.5 °C 30.30in /  1026hPa ESE 0.9mph /  1.4km/h 2.0mph /  3.2km/h 27% 0.00in /  0mm 0.0 W/m2
01:13 58.3 °F /  14.6 °C 24.4 °F /  -4.2 °C 30.30in /  1026hPa Calm   1.0mph /  1.6km/h 27% 0.00in /  0mm 0.0 W/m2
01:19 58.3 °F /  14.6 °C 24.4 °F /  -4.2 °C 30.30in /  1026hPa Calm     27% 0.00in /  0mm 0.0 W/m2
01:25 58.3 °F /  14.6 °C 24.4 °F /  -4.2 °C 30.30in /  1026hPa Calm     27% 0.00in /  0mm 0.0 W/m2
01:31 57.9 °F /  14.4 °C 24.1 °F /  -4.4 °C 30.30in /  1026hPa Calm     27% 0.00in /  0mm 0.0 W/m2
01:37 57.6 °F /  14.2 °C 24.6 °F /  -4.1 °C 30.30in /  1026hPa NE 2.0mph /  3.2km/h 2.0mph /  3.2km/h 28% 0.00in /  0mm 0.0 W/m2
01:43 57.2 °F /  14 °C 24.4 °F /  -4.2 °C 30.30in /  1026hPa Calm     28% 0.00in /  0mm 0.0 W/m2
01:50 56.8 °F /  13.8 °C 25.0 °F /  -3.9 °C 30.30in /  1026hPa Calm     29% 0.00in /  0mm 0.0 W/m2
01:56 56.7 °F /  13.7 °C 24.8 °F /  -4 °C 30.30in /  1026hPa Calm     29% 0.00in /  0mm 0.0 W/m2
02:02 56.1 °F /  13.4 °C 24.3 °F /  -4.3 °C 30.29in /  1025.6hPa Calm     29% 0.00in /  0mm 0.0 W/m2
02:08 55.8 °F /  13.2 °C 24.8 °F /  -4 °C 30.29in /  1025.6hPa Calm     30% 0.00in /  0mm 0.0 W/m2
02:14 55.6 °F /  13.1 °C 24.6 °F /  -4.1 °C 30.29in /  1025.6hPa Calm   1.0mph /  1.6km/h 30% 0.00in /  0mm 0.0 W/m2
02:20 55.4 °F /  13 °C 24.4 °F /  -4.2 °C 30.29in /  1025.6hPa Calm   1.0mph /  1.6km/h 30% 0.00in /  0mm 0.0 W/m2
02:27 55.2 °F /  12.9 °C 24.3 °F /  -4.3 °C 30.29in /  1025.6hPa Calm     30% 0.00in /  0mm 0.0 W/m2
02:33 54.9 °F /  12.7 °C 24.1 °F /  -4.4 °C 30.29in /  1025.6hPa Calm     30% 0.00in /  0mm 0.0 W/m2
02:39 54.7 °F /  12.6 °C 24.6 °F /  -4.1 °C 30.28in /  1025.3hPa Calm     31% 0.00in /  0mm 0.0 W/m2
02:45 54.5 °F /  12.5 °C 24.4 °F /  -4.2 °C 30.28in /  1025.3hPa Calm     31% 0.00in /  0mm 0.0 W/m2
02:51 54.3 °F /  12.4 °C 25.2 °F /  -3.8 °C 30.28in /  1025.3hPa Calm     32% 0.00in /  0mm 0.0 W/m2
02:57 54.1 °F /  12.3 °C 25.0 °F /  -3.9 °C 30.28in /  1025.3hPa Calm     32% 0.00in /  0mm 0.0 W/m2
03:04 54.1 °F /  12.3 °C 25.0 °F /  -3.9 °C 30.28in /  1025.3hPa Calm     32% 0.00in /  0mm 0.0 W/m2
03:10 54.0 °F /  12.2 °C 24.8 °F /  -4 °C 30.28in /  1025.3hPa East 0.9mph /  1.4km/h 2.0mph /  3.2km/h 32% 0.00in /  0mm 0.0 W/m2
03:16 53.8 °F /  12.1 °C 24.6 °F /  -4.1 °C 30.28in /  1025.3hPa Calm     32% 0.00in /  0mm 0.0 W/m2
03:22 53.8 °F /  12.1 °C 25.3 °F /  -3.7 °C 30.28in /  1025.3hPa Calm   3.0mph /  4.8km/h 33% 0.00in /  0mm 0.0 W/m2
03:28 54.0 °F /  12.2 °C 25.5 °F /  -3.6 °C 30.27in /  1024.9hPa Calm   1.0mph /  1.6km/h 33% 0.00in /  0mm 0.0 W/m2
03:34 54.5 °F /  12.5 °C 26.1 °F /  -3.3 °C 30.27in /  1024.9hPa Calm     33% 0.00in /  0mm 0.0 W/m2
03:40 55.0 °F /  12.8 °C 25.7 °F /  -3.5 °C 30.27in /  1024.9hPa Calm   1.0mph /  1.6km/h 32% 0.00in /  0mm 0.0 W/m2
03:46 55.4 °F /  13 °C 25.3 °F /  -3.7 °C 30.27in /  1024.9hPa Calm   1.0mph /  1.6km/h 31% 0.00in /  0mm 0.0 W/m2
03:53 55.2 °F /  12.9 °C 25.2 °F /  -3.8 °C 30.27in /  1024.9hPa Calm     31% 0.00in /  0mm 0.0 W/m2
03:59 54.9 °F /  12.7 °C 25.5 °F /  -3.6 °C 30.26in /  1024.6hPa Calm   2.0mph /  3.2km/h 32% 0.00in /  0mm 0.0 W/m2
04:05 54.9 °F /  12.7 °C 24.8 °F /  -4 °C 30.27in /  1024.9hPa Calm   1.0mph /  1.6km/h 31% 0.00in /  0mm 0.0 W/m2
04:11 54.7 °F /  12.6 °C 24.6 °F /  -4.1 °C 30.26in /  1024.6hPa Calm   1.0mph /  1.6km/h 31% 0.00in /  0mm 0.0 W/m2
04:17 54.5 °F /  12.5 °C 25.2 °F /  -3.8 °C 30.26in /  1024.6hPa ENE 0.9mph /  1.4km/h 3.0mph /  4.8km/h 32% 0.00in /  0mm 0.0 W/m2
04:23 54.7 °F /  12.6 °C 25.3 °F /  -3.7 °C 30.26in /  1024.6hPa East 2.0mph /  3.2km/h 5.0mph /  8km/h 32% 0.00in /  0mm 0.0 W/m2
04:30 54.9 °F /  12.7 °C 26.2 °F /  -3.2 °C 30.26in /  1024.6hPa Calm   2.0mph /  3.2km/h 33% 0.00in /  0mm 0.0 W/m2
04:36 55.4 °F /  13 °C 25.3 °F /  -3.7 °C 30.26in /  1024.6hPa SSE 0.9mph /  1.4km/h 3.0mph /  4.8km/h 31% 0.00in /  0mm 0.0 W/m2
04:42 55.6 °F /  13.1 °C 24.6 °F /  -4.1 °C 30.26in /  1024.6hPa Calm     30% 0.00in /  0mm 0.0 W/m2
04:48 55.0 °F /  12.8 °C 24.1 °F /  -4.4 °C 30.26in /  1024.6hPa SSE 0.9mph /  1.4km/h 2.0mph /  3.2km/h 30% 0.00in /  0mm 0.0 W/m2
04:54 54.7 °F /  12.6 °C 24.6 °F /  -4.1 °C 30.26in /  1024.6hPa Calm     31% 0.00in /  0mm 0.0 W/m2
05:00 54.3 °F /  12.4 °C 25.2 °F /  -3.8 °C 30.26in /  1024.6hPa Calm     32% 0.00in /  0mm 0.0 W/m2
05:06 54.0 °F /  12.2 °C 24.8 °F /  -4 °C 30.26in /  1024.6hPa Calm     32% 0.00in /  0mm 0.0 W/m2
05:21 53.6 °F /  12 °C 25.9 °F /  -3.4 °C 30.27in /  1024.9hPa Calm     34% 0.00in /  0mm 0.0 W/m2
05:25 53.4 °F /  11.9 °C 25.0 °F /  -3.9 °C 29.93in /  1013.4hPa Calm     33% 0.00in /  0mm 0.0 W/m2
05:27 53.4 °F /  11.9 °C 25.0 °F /  -3.9 °C 30.27in /  1024.9hPa SE 0.9mph /  1.4km/h 1.0mph /  1.6km/h 33% 0.00in /  0mm 0.0 W/m2
05:35 53.2 °F /  11.8 °C 24.8 °F /  -4 °C 30.27in /  1024.9hPa Calm     33% 0.00in /  0mm 0.0 W/m2
05:39 53.4 °F /  11.9 °C 25.7 °F /  -3.5 °C 30.27in /  1024.9hPa Calm     34% 0.00in /  0mm 0.0 W/m2
05:45 53.2 °F /  11.8 °C 25.5 °F /  -3.6 °C 30.27in /  1024.9hPa Calm     34% 0.00in /  0mm 0.0 W/m2
05:47 53.2 °F /  11.8 °C 25.5 °F /  -3.6 °C 30.27in /  1024.9hPa Calm     34% 0.00in /  0mm 0.0 W/m2
05:53 53.2 °F /  11.8 °C 25.5 °F /  -3.6 °C 30.27in /  1024.9hPa Calm     34% 0.00in /  0mm 0.0 W/m2
06:00 53.1 °F /  11.7 °C 25.3 °F /  -3.7 °C 30.27in /  1024.9hPa Calm   1.0mph /  1.6km/h 34% 0.00in /  0mm 0.0 W/m2
06:05 53.2 °F /  11.8 °C 25.5 °F /  -3.6 °C 30.27in /  1024.9hPa Calm   1.0mph /  1.6km/h 34% 0.00in /  0mm 0.0 W/m2
06:12 53.2 °F /  11.8 °C 26.2 °F /  -3.2 °C 30.27in /  1024.9hPa Calm   1.0mph /  1.6km/h 35% 0.00in /  0mm 0.0 W/m2
06:18 53.2 °F /  11.8 °C 25.5 °F /  -3.6 °C 30.27in /  1024.9hPa Calm     34% 0.00in /  0mm 0.0 W/m2
06:24 53.2 °F /  11.8 °C 25.5 °F /  -3.6 °C 30.28in /  1025.3hPa Calm     34% 0.00in /  0mm 0.0 W/m2
06:32 53.1 °F /  11.7 °C 25.3 °F /  -3.7 °C 30.28in /  1025.3hPa Calm     34% 0.00in /  0mm 0.0 W/m2
06:37 52.9 °F /  11.6 °C 25.9 °F /  -3.4 °C 30.28in /  1025.3hPa Calm     35% 0.00in /  0mm 0.0 W/m2
06:42 52.5 °F /  11.4 °C 26.2 °F /  -3.2 °C 30.28in /  1025.3hPa Calm     36% 0.00in /  0mm 0.0 W/m2
06:48 52.3 °F /  11.3 °C 26.8 °F /  -2.9 °C 30.28in /  1025.3hPa Calm     37% 0.00in /  0mm 0.0 W/m2
06:55 52.2 °F /  11.2 °C 26.6 °F /  -3 °C 30.28in /  1025.3hPa Calm     37% 0.00in /  0mm 0.0 W/m2
07:01 52.5 °F /  11.4 °C 26.2 °F /  -3.2 °C 30.28in /  1025.3hPa Calm   5.0mph /  8km/h 36% 0.00in /  0mm 5.0 W/m2
07:07 53.4 °F /  11.9 °C 26.4 °F /  -3.1 °C 30.28in /  1025.3hPa Calm     35% 0.00in /  0mm 11.0 W/m2
07:13 53.4 °F /  11.9 °C 26.4 °F /  -3.1 °C 30.28in /  1025.3hPa Calm   1.0mph /  1.6km/h 35% 0.00in /  0mm 14.0 W/m2
07:19 54.0 °F /  12.2 °C 27.0 °F /  -2.8 °C 30.29in /  1025.6hPa Calm     35% 0.00in /  0mm 19.0 W/m2
07:25 54.7 °F /  12.6 °C 27.5 °F /  -2.5 °C 30.29in /  1025.6hPa Calm   1.0mph /  1.6km/h 35% 0.00in /  0mm 26.0 W/m2
07:31 55.2 °F /  12.9 °C 27.3 °F /  -2.6 °C 30.29in /  1025.6hPa Calm   1.0mph /  1.6km/h 34% 0.00in /  0mm 32.0 W/m2
07:37 55.9 °F /  13.3 °C 28.8 °F /  -1.8 °C 30.29in /  1025.6hPa Calm   1.0mph /  1.6km/h 35% 0.00in /  0mm 39.0 W/m2
07:43 56.5 °F /  13.6 °C 29.8 °F /  -1.2 °C 30.29in /  1025.6hPa Calm     36% 0.00in /  0mm 44.0 W/m2
07:50 57.0 °F /  13.9 °C 28.9 °F /  -1.7 °C 30.29in /  1025.6hPa Calm   1.0mph /  1.6km/h 34% 0.00in /  0mm 49.0 W/m2
07:56 57.4 °F /  14.1 °C 29.3 °F /  -1.5 °C 30.30in /  1026hPa Calm   1.0mph /  1.6km/h 34% 0.00in /  0mm 56.0 W/m2
08:02 57.7 °F /  14.3 °C 29.5 °F /  -1.4 °C 30.30in /  1026hPa Calm     34% 0.00in /  0mm 62.0 W/m2
08:08 57.9 °F /  14.4 °C 30.4 °F /  -0.9 °C 30.30in /  1026hPa Calm     35% 0.00in /  0mm 67.0 W/m2
08:14 58.3 °F /  14.6 °C 30.7 °F /  -0.7 °C 30.30in /  1026hPa Calm   1.0mph /  1.6km/h 35% 0.00in /  0mm 72.0 W/m2
08:20 58.8 °F /  14.9 °C 31.3 °F /  -0.4 °C 30.31in /  1026.3hPa Calm     35% 0.00in /  0mm 77.0 W/m2
08:27 59.4 °F /  15.2 °C 31.6 °F /  -0.2 °C 30.31in /  1026.3hPa Calm     35% 0.00in /  0mm 83.0 W/m2
08:33 60.1 °F /  15.6 °C 31.6 °F /  -0.2 °C 30.31in /  1026.3hPa NNE 2.0mph /  3.2km/h 2.0mph /  3.2km/h 34% 0.00in /  0mm 86.0 W/m2
08:39 61.2 °F /  16.2 °C 30.2 °F /  -1 °C 30.31in /  1026.3hPa Calm   2.0mph /  3.2km/h 31% 0.00in /  0mm 91.0 W/m2
08:45 62.6 °F /  17 °C 29.8 °F /  -1.2 °C 30.31in /  1026.3hPa Calm   6.0mph /  9.7km/h 29% 0.00in /  0mm 97.0 W/m2
08:51 64.6 °F /  18.1 °C 30.7 °F /  -0.7 °C 30.31in /  1026.3hPa Calm   4.0mph /  6.4km/h 28% 0.00in /  0mm 100.0 W/m2
08:57 66.0 °F /  18.9 °C 31.1 °F /  -0.5 °C 30.31in /  1026.3hPa Calm   10.0mph /  16.1km/h 27% 0.00in /  0mm 105.0 W/m2
09:03 67.5 °F /  19.7 °C 31.5 °F /  -0.3 °C 30.31in /  1026.3hPa ENE 6.9mph /  11.1km/h 11.0mph /  17.7km/h 26% 0.00in /  0mm 111.0 W/m2
09:09 68.5 °F /  20.3 °C 32.4 °F /  0.2 °C 30.31in /  1026.3hPa NE 4.9mph /  7.9km/h 6.0mph /  9.7km/h 26% 0.00in /  0mm 116.0 W/m2
09:16 69.3 °F /  20.7 °C 32.0 °F /  0 °C 30.31in /  1026.3hPa East 2.0mph /  3.2km/h 6.0mph /  9.7km/h 25% 0.00in /  0mm 121.0 W/m2
09:22 70.0 °F /  21.1 °C 32.5 °F /  0.3 °C 30.31in /  1026.3hPa Calm   10.0mph /  16.1km/h 25% 0.00in /  0mm 125.0 W/m2
09:28 70.7 °F /  21.5 °C 32.2 °F /  0.1 °C 30.31in /  1026.3hPa NE 4.0mph /  6.4km/h 8.0mph /  12.9km/h 24% 0.00in /  0mm 130.0 W/m2
09:34 71.4 °F /  21.9 °C 32.7 °F /  0.4 °C 30.31in /  1026.3hPa North 8.1mph /  13km/h 9.0mph /  14.5km/h 24% 0.00in /  0mm 137.0 W/m2
09:40 72.0 °F /  22.2 °C 33.3 °F /  0.7 °C 30.31in /  1026.3hPa NNE 6.0mph /  9.7km/h 9.0mph /  14.5km/h 24% 0.00in /  0mm 425.0 W/m2
09:46 72.7 °F /  22.6 °C 32.7 °F /  0.4 °C 30.31in /  1026.3hPa ENE 2.9mph /  4.7km/h 7.0mph /  11.3km/h 23% 0.00in /  0mm 445.0 W/m2
09:52 73.4 °F /  23 °C 33.3 °F /  0.7 °C 30.31in /  1026.3hPa NE 4.9mph /  7.9km/h 8.0mph /  12.9km/h 23% 0.00in /  0mm 466.0 W/m2
09:58 74.1 °F /  23.4 °C 34.0 °F /  1.1 °C 30.31in /  1026.3hPa NE 6.0mph /  9.7km/h 8.0mph /  12.9km/h 23% 0.00in /  0mm 487.0 W/m2
10:04 74.7 °F /  23.7 °C 33.3 °F /  0.7 °C 30.31in /  1026.3hPa Calm   6.0mph /  9.7km/h 22% 0.00in /  0mm 504.0 W/m2
10:11 75.6 °F /  24.2 °C 32.9 °F /  0.5 °C 30.30in /  1026hPa North 4.0mph /  6.4km/h 7.0mph /  11.3km/h 21% 0.00in /  0mm 519.0 W/m2
10:17 75.9 °F /  24.4 °C 33.3 °F /  0.7 °C 30.30in /  1026hPa NE 0.9mph /  1.4km/h 4.0mph /  6.4km/h 21% 0.00in /  0mm 541.0 W/m2
10:23 76.6 °F /  24.8 °C 33.8 °F /  1 °C 30.30in /  1026hPa Calm   7.0mph /  11.3km/h 21% 0.00in /  0mm 555.0 W/m2
10:29 77.2 °F /  25.1 °C 33.1 °F /  0.6 °C 30.30in /  1026hPa North 0.9mph /  1.4km/h 4.0mph /  6.4km/h 20% 0.00in /  0mm 568.0 W/m2
10:35 78.1 °F /  25.6 °C 33.8 °F /  1 °C 30.30in /  1026hPa North 7.0mph /  11.3km/h 7.0mph /  11.3km/h 20% 0.00in /  0mm 584.0 W/m2
10:41 79.0 °F /  26.1 °C 34.5 °F /  1.4 °C 30.30in /  1026hPa Calm   2.0mph /  3.2km/h 20% 0.00in /  0mm 605.0 W/m2
10:47 79.5 °F /  26.4 °C 33.6 °F /  0.9 °C 30.30in /  1026hPa North 0.9mph /  1.4km/h 3.0mph /  4.8km/h 19% 0.00in /  0mm 619.0 W/m2
10:53 80.1 °F /  26.7 °C 34.2 °F /  1.2 °C 30.29in /  1025.6hPa NE 4.0mph /  6.4km/h 10.0mph /  16.1km/h 19% 0.00in /  0mm 629.0 W/m2
10:59 80.6 °F /  27 °C 34.5 °F /  1.4 °C 30.29in /  1025.6hPa NW 2.9mph /  4.7km/h 3.0mph /  4.8km/h 19% 0.00in /  0mm 649.0 W/m2
11:06 81.0 °F /  27.2 °C 34.9 °F /  1.6 °C 30.29in /  1025.6hPa NNE 2.9mph /  4.7km/h 4.0mph /  6.4km/h 19% 0.00in /  0mm 656.0 W/m2
11:12 81.3 °F /  27.4 °C 33.8 °F /  1 °C 30.28in /  1025.3hPa Calm   5.0mph /  8km/h 18% 0.00in /  0mm 666.0 W/m2
11:18 81.9 °F /  27.7 °C 34.2 °F /  1.2 °C 30.28in /  1025.3hPa NNW 2.9mph /  4.7km/h 4.0mph /  6.4km/h 18% 0.00in /  0mm 682.0 W/m2
11:24 82.6 °F /  28.1 °C 34.7 °F /  1.5 °C 30.28in /  1025.3hPa NNE 6.9mph /  11.1km/h 7.0mph /  11.3km/h 18% 0.00in /  0mm 691.0 W/m2
11:30 82.8 °F /  28.2 °C 33.4 °F /  0.8 °C 30.27in /  1024.9hPa North 4.0mph /  6.4km/h 6.0mph /  9.7km/h 17% 0.00in /  0mm 700.0 W/m2
11:36 82.9 °F /  28.3 °C 35.1 °F /  1.7 °C 30.27in /  1024.9hPa Calm   5.0mph /  8km/h 18% 0.00in /  0mm 710.0 W/m2
11:42 83.5 °F /  28.6 °C 34.2 °F /  1.2 °C 30.27in /  1024.9hPa East 2.9mph /  4.7km/h 6.0mph /  9.7km/h 17% 0.00in /  0mm 729.0 W/m2
11:53 84.0 °F /  28.9 °C 34.5 °F /  1.4 °C 30.27in /  1024.9hPa NNE 4.0mph /  6.4km/h 8.0mph /  12.9km/h 17% 0.00in /  0mm 731.0 W/m2
11:59 84.0 °F /  28.9 °C 33.1 °F /  0.6 °C 30.27in /  1024.9hPa North 4.9mph /  7.9km/h 7.0mph /  11.3km/h 16% 0.00in /  0mm 744.0 W/m2
12:05 84.4 °F /  29.1 °C 33.3 °F /  0.7 °C 30.26in /  1024.6hPa ENE 2.9mph /  4.7km/h 7.0mph /  11.3km/h 16% 0.00in /  0mm 749.0 W/m2
12:11 84.6 °F /  29.2 °C 31.8 °F /  -0.1 °C 30.26in /  1024.6hPa NNW 4.9mph /  7.9km/h 7.0mph /  11.3km/h 15% 0.00in /  0mm 742.0 W/m2
12:17 85.3 °F /  29.6 °C 32.4 °F /  0.2 °C 30.26in /  1024.6hPa WNW 0.9mph /  1.4km/h 6.0mph /  9.7km/h 15% 0.00in /  0mm 756.0 W/m2
12:23 85.5 °F /  29.7 °C 32.5 °F /  0.3 °C 30.25in /  1024.3hPa ENE 6.9mph /  11.1km/h 7.0mph /  11.3km/h 15% 0.00in /  0mm 754.0 W/m2
12:29 85.5 °F /  29.7 °C 32.5 °F /  0.3 °C 30.25in /  1024.3hPa North 6.0mph /  9.7km/h 8.0mph /  12.9km/h 15% 0.00in /  0mm 749.0 W/m2
12:35 84.9 °F /  29.4 °C 32.2 °F /  0.1 °C 30.25in /  1024.3hPa NNW 0.9mph /  1.4km/h 11.0mph /  17.7km/h 15% 0.00in /  0mm 754.0 W/m2
12:42 85.3 °F /  29.6 °C 34.0 °F /  1.1 °C 30.24in /  1023.9hPa WNW 2.9mph /  4.7km/h 12.0mph /  19.3km/h 16% 0.00in /  0mm 758.0 W/m2
12:47 85.6 °F /  29.8 °C 32.7 °F /  0.4 °C 30.24in /  1023.9hPa North 8.9mph /  14.3km/h 12.0mph /  19.3km/h 15% 0.00in /  0mm 752.0 W/m2
12:53 85.8 °F /  29.9 °C 32.9 °F /  0.5 °C 30.24in /  1023.9hPa WSW 2.9mph /  4.7km/h 8.0mph /  12.9km/h 15% 0.00in /  0mm 749.0 W/m2
12:59 85.8 °F /  29.9 °C 32.9 °F /  0.5 °C 30.23in /  1023.6hPa WNW 4.0mph /  6.4km/h 12.0mph /  19.3km/h 15% 0.00in /  0mm 751.0 W/m2
13:06 86.0 °F /  30 °C 32.9 °F /  0.5 °C 30.23in /  1023.6hPa North 6.9mph /  11.1km/h 9.0mph /  14.5km/h 15% 0.00in /  0mm 749.0 W/m2
13:12 86.4 °F /  30.2 °C 33.3 °F /  0.7 °C 30.23in /  1023.6hPa WSW 2.9mph /  4.7km/h 6.0mph /  9.7km/h 15% 0.00in /  0mm 749.0 W/m2
13:18 86.5 °F /  30.3 °C 31.6 °F /  -0.2 °C 30.22in /  1023.2hPa North 0.9mph /  1.4km/h 6.0mph /  9.7km/h 14% 0.00in /  0mm 728.0 W/m2
13:24 86.7 °F /  30.4 °C 33.6 °F /  0.9 °C 30.22in /  1023.2hPa North 4.0mph /  6.4km/h 9.0mph /  14.5km/h 15% 0.00in /  0mm 737.0 W/m2
13:30 86.9 °F /  30.5 °C 32.0 °F /  0 °C 30.22in /  1023.2hPa NNW 2.0mph /  3.2km/h 4.0mph /  6.4km/h 14% 0.00in /  0mm 726.0 W/m2
13:36 87.1 °F /  30.6 °C 32.2 °F /  0.1 °C 30.22in /  1023.2hPa West 2.0mph /  3.2km/h 4.0mph /  6.4km/h 14% 0.00in /  0mm 728.0 W/m2
13:42 87.3 °F /  30.7 °C 32.2 °F /  0.1 °C 30.22in /  1023.2hPa NNW 4.9mph /  7.9km/h 11.0mph /  17.7km/h 14% 0.00in /  0mm 721.0 W/m2
13:48 87.3 °F /  30.7 °C 32.2 °F /  0.1 °C 30.21in /  1022.9hPa Calm   12.0mph /  19.3km/h 14% 0.00in /  0mm 701.0 W/m2
13:55 87.4 °F /  30.8 °C 32.4 °F /  0.2 °C 30.21in /  1022.9hPa WNW 2.0mph /  3.2km/h 8.0mph /  12.9km/h 14% 0.00in /  0mm 712.0 W/m2
14:01 87.3 °F /  30.7 °C 32.2 °F /  0.1 °C 30.20in /  1022.6hPa North 4.0mph /  6.4km/h 9.0mph /  14.5km/h 14% 0.00in /  0mm 703.0 W/m2
14:07 87.6 °F /  30.9 °C 32.5 °F /  0.3 °C 30.20in /  1022.6hPa WSW 0.9mph /  1.4km/h 7.0mph /  11.3km/h 14% 0.00in /  0mm 691.0 W/m2
14:13 87.1 °F /  30.6 °C 32.2 °F /  0.1 °C 30.20in /  1022.6hPa WNW 2.0mph /  3.2km/h 10.0mph /  16.1km/h 14% 0.00in /  0mm 670.0 W/m2
14:19 86.5 °F /  30.3 °C 31.6 °F /  -0.2 °C 30.20in /  1022.6hPa Calm   5.0mph /  8km/h 14% 0.00in /  0mm 663.0 W/m2
14:25 87.3 °F /  30.7 °C 32.2 °F /  0.1 °C 30.20in /  1022.6hPa North 2.9mph /  4.7km/h 9.0mph /  14.5km/h 14% 0.00in /  0mm 675.0 W/m2
14:31 88.0 °F /  31.1 °C 30.9 °F /  -0.6 °C 30.19in /  1022.2hPa WNW 0.9mph /  1.4km/h 7.0mph /  11.3km/h 13% 0.00in /  0mm 694.0 W/m2
14:37 87.6 °F /  30.9 °C 30.7 °F /  -0.7 °C 30.19in /  1022.2hPa NNE 2.0mph /  3.2km/h 7.0mph /  11.3km/h 13% 0.00in /  0mm 638.0 W/m2
14:44 87.6 °F /  30.9 °C 30.7 °F /  -0.7 °C 30.19in /  1022.2hPa WNW 2.9mph /  4.7km/h 9.0mph /  14.5km/h 13% 0.00in /  0mm 612.0 W/m2
14:46 87.6 °F /  30.9 °C 30.7 °F /  -0.7 °C 30.19in /  1022.2hPa NW 2.9mph /  4.7km/h 11.0mph /  17.7km/h 13% 0.00in /  0mm 216.0 W/m2
14:52 87.4 °F /  30.8 °C 28.6 °F /  -1.9 °C 30.19in /  1022.2hPa WSW 0.9mph /  1.4km/h 3.0mph /  4.8km/h 12% 0.00in /  0mm 631.0 W/m2
14:58 86.7 °F /  30.4 °C 30.0 °F /  -1.1 °C 30.19in /  1022.2hPa Calm   6.0mph /  9.7km/h 13% 0.00in /  0mm 610.0 W/m2
15:04 86.5 °F /  30.3 °C 29.8 °F /  -1.2 °C 30.18in /  1021.9hPa SW 0.9mph /  1.4km/h 7.0mph /  11.3km/h 13% 0.00in /  0mm 603.0 W/m2
15:10 86.5 °F /  30.3 °C 29.8 °F /  -1.2 °C 30.18in /  1021.9hPa Calm   4.0mph /  6.4km/h 13% 0.00in /  0mm 591.0 W/m2
15:16 86.7 °F /  30.4 °C 30.0 °F /  -1.1 °C 30.18in /  1021.9hPa West 6.0mph /  9.7km/h 9.0mph /  14.5km/h 13% 0.00in /  0mm 237.0 W/m2
15:23 86.5 °F /  30.3 °C 29.8 °F /  -1.2 °C 30.18in /  1021.9hPa NW 2.0mph /  3.2km/h 2.0mph /  3.2km/h 13% 0.00in /  0mm 555.0 W/m2
15:29 87.1 °F /  30.6 °C 30.2 °F /  -1 °C 30.18in /  1021.9hPa WNW 2.9mph /  4.7km/h 7.0mph /  11.3km/h 13% 0.00in /  0mm 485.0 W/m2
15:35 87.1 °F /  30.6 °C 30.2 °F /  -1 °C 30.18in /  1021.9hPa Calm   7.0mph /  11.3km/h 13% 0.00in /  0mm 492.0 W/m2
15:41 86.9 °F /  30.5 °C 30.2 °F /  -1 °C 30.18in /  1021.9hPa WNW 2.0mph /  3.2km/h 6.0mph /  9.7km/h 13% 0.00in /  0mm 476.0 W/m2
15:47 86.7 °F /  30.4 °C 30.0 °F /  -1.1 °C 30.18in /  1021.9hPa NW 0.9mph /  1.4km/h 3.0mph /  4.8km/h 13% 0.00in /  0mm 448.0 W/m2
15:53 87.3 °F /  30.7 °C 30.4 °F /  -0.9 °C 30.18in /  1021.9hPa NW 2.0mph /  3.2km/h 5.0mph /  8km/h 13% 0.00in /  0mm 439.0 W/m2
15:59 87.6 °F /  30.9 °C 30.7 °F /  -0.7 °C 30.17in /  1021.6hPa Calm   5.0mph /  8km/h 13% 0.00in /  0mm 411.0 W/m2
16:06 87.6 °F /  30.9 °C 30.7 °F /  -0.7 °C 30.17in /  1021.6hPa Calm   7.0mph /  11.3km/h 13% 0.00in /  0mm 403.0 W/m2
16:12 87.4 °F /  30.8 °C 30.6 °F /  -0.8 °C 30.17in /  1021.6hPa WSW 0.9mph /  1.4km/h 2.0mph /  3.2km/h 13% 0.00in /  0mm 260.0 W/m2
16:18 86.9 °F /  30.5 °C 30.2 °F /  -1 °C 30.17in /  1021.6hPa WNW 2.9mph /  4.7km/h 5.0mph /  8km/h 13% 0.00in /  0mm 230.0 W/m2
16:24 86.4 °F /  30.2 °C 29.7 °F /  -1.3 °C 30.18in /  1021.9hPa WNW 0.9mph /  1.4km/h 6.0mph /  9.7km/h 13% 0.00in /  0mm 341.0 W/m2
16:30 86.4 °F /  30.2 °C 29.7 °F /  -1.3 °C 30.18in /  1021.9hPa Calm   3.0mph /  4.8km/h 13% 0.00in /  0mm 128.0 W/m2
16:36 85.6 °F /  29.8 °C 29.1 °F /  -1.6 °C 30.18in /  1021.9hPa Calm   6.0mph /  9.7km/h 13% 0.00in /  0mm 104.0 W/m2
16:42 85.3 °F /  29.6 °C 30.7 °F /  -0.7 °C 30.18in /  1021.9hPa NW 2.0mph /  3.2km/h 5.0mph /  8km/h 14% 0.00in /  0mm 91.0 W/m2
16:48 84.7 °F /  29.3 °C 30.2 °F /  -1 °C 30.18in /  1021.9hPa Calm   3.0mph /  4.8km/h 14% 0.00in /  0mm 81.0 W/m2
16:54 84.4 °F /  29.1 °C 30.0 °F /  -1.1 °C 30.18in /  1021.9hPa WNW 2.0mph /  3.2km/h 3.0mph /  4.8km/h 14% 0.00in /  0mm 76.0 W/m2
17:01 83.7 °F /  28.7 °C 31.1 °F /  -0.5 °C 30.18in /  1021.9hPa Calm   2.0mph /  3.2km/h 15% 0.00in /  0mm 63.0 W/m2
17:07 83.1 °F /  28.4 °C 30.7 °F /  -0.7 °C 30.18in /  1021.9hPa Calm   5.0mph /  8km/h 15% 0.00in /  0mm 60.0 W/m2
17:13 82.8 °F /  28.2 °C 32.0 °F /  0 °C 30.18in /  1021.9hPa Calm   3.0mph /  4.8km/h 16% 0.00in /  0mm 62.0 W/m2
17:19 82.6 °F /  28.1 °C 30.2 °F /  -1 °C 30.18in /  1021.9hPa NW 2.0mph /  3.2km/h 5.0mph /  8km/h 15% 0.00in /  0mm 58.0 W/m2
17:25 82.4 °F /  28 °C 31.6 °F /  -0.2 °C 30.18in /  1021.9hPa Calm   2.0mph /  3.2km/h 16% 0.00in /  0mm 54.0 W/m2
17:31 82.0 °F /  27.8 °C 31.5 °F /  -0.3 °C 30.18in /  1021.9hPa Calm   1.0mph /  1.6km/h 16% 0.00in /  0mm 51.0 W/m2
17:37 81.9 °F /  27.7 °C 31.3 °F /  -0.4 °C 30.19in /  1022.2hPa Calm   2.0mph /  3.2km/h 16% 0.00in /  0mm 46.0 W/m2
17:44 81.9 °F /  27.7 °C 31.3 °F /  -0.4 °C 30.19in /  1022.2hPa WSW 2.0mph /  3.2km/h 2.0mph /  3.2km/h 16% 0.00in /  0mm 76.0 W/m2
17:50 81.9 °F /  27.7 °C 31.3 °F /  -0.4 °C 30.19in /  1022.2hPa Calm   3.0mph /  4.8km/h 16% 0.00in /  0mm 39.0 W/m2
17:56 81.9 °F /  27.7 °C 31.3 °F /  -0.4 °C 30.19in /  1022.2hPa Calm   1.0mph /  1.6km/h 16% 0.00in /  0mm 33.0 W/m2
18:02 81.7 °F /  27.6 °C 31.1 °F /  -0.5 °C 30.19in /  1022.2hPa Calm     16% 0.00in /  0mm 26.0 W/m2
18:08 81.3 °F /  27.4 °C 30.9 °F /  -0.6 °C 30.19in /  1022.2hPa Calm   1.0mph /  1.6km/h 16% 0.00in /  0mm 19.0 W/m2
18:14 81.0 °F /  27.2 °C 30.6 °F /  -0.8 °C 30.19in /  1022.2hPa Calm     16% 0.00in /  0mm 14.0 W/m2
18:20 80.4 °F /  26.9 °C 31.6 °F /  -0.2 °C 30.19in /  1022.2hPa Calm     17% 0.00in /  0mm 12.0 W/m2
18:27 80.1 °F /  26.7 °C 31.3 °F /  -0.4 °C 30.19in /  1022.2hPa Calm     17% 0.00in /  0mm 7.0 W/m2
18:33 79.5 °F /  26.4 °C 32.4 °F /  0.2 °C 30.20in /  1022.6hPa Calm     18% 0.00in /  0mm 5.0 W/m2
18:39 79.0 °F /  26.1 °C 31.8 °F /  -0.1 °C 30.20in /  1022.6hPa Calm     18% 0.00in /  0mm 0.0 W/m2
18:45 78.3 °F /  25.7 °C 31.3 °F /  -0.4 °C 30.20in /  1022.6hPa Calm     18% 0.00in /  0mm 0.0 W/m2
18:51 77.5 °F /  25.3 °C 30.7 °F /  -0.7 °C 30.20in /  1022.6hPa Calm     18% 0.00in /  0mm 0.0 W/m2
18:57 77.2 °F /  25.1 °C 31.8 °F /  -0.1 °C 30.21in /  1022.9hPa Calm     19% 0.00in /  0mm 0.0 W/m2
19:03 76.5 °F /  24.7 °C 31.1 °F /  -0.5 °C 30.21in /  1022.9hPa Calm     19% 0.00in /  0mm 0.0 W/m2
19:10 75.7 °F /  24.3 °C 31.8 °F /  -0.1 °C 30.21in /  1022.9hPa Calm     20% 0.00in /  0mm 0.0 W/m2
19:16 75.0 °F /  23.9 °C 32.4 °F /  0.2 °C 30.21in /  1022.9hPa Calm     21% 0.00in /  0mm 0.0 W/m2
19:22 74.5 °F /  23.6 °C 32.0 °F /  0 °C 30.22in /  1023.2hPa Calm     21% 0.00in /  0mm 0.0 W/m2
19:28 73.8 °F /  23.2 °C 31.5 °F /  -0.3 °C 30.22in /  1023.2hPa Calm     21% 0.00in /  0mm 0.0 W/m2
19:34 73.0 °F /  22.8 °C 32.0 °F /  0 °C 30.22in /  1023.2hPa Calm   1.0mph /  1.6km/h 22% 0.00in /  0mm 0.0 W/m2
19:40 72.5 °F /  22.5 °C 31.5 °F /  -0.3 °C 30.22in /  1023.2hPa Calm     22% 0.00in /  0mm 0.0 W/m2
19:46 71.8 °F /  22.1 °C 30.9 °F /  -0.6 °C 30.23in /  1023.6hPa SE 0.9mph /  1.4km/h 1.0mph /  1.6km/h 22% 0.00in /  0mm 0.0 W/m2
19:52 71.1 °F /  21.7 °C 31.5 °F /  -0.3 °C 30.23in /  1023.6hPa Calm     23% 0.00in /  0mm 0.0 W/m2
19:59 70.5 °F /  21.4 °C 30.9 °F /  -0.6 °C 30.23in /  1023.6hPa Calm   1.0mph /  1.6km/h 23% 0.00in /  0mm 0.0 W/m2
20:05 70.2 °F /  21.2 °C 30.6 °F /  -0.8 °C 30.24in /  1023.9hPa Calm     23% 0.00in /  0mm 0.0 W/m2
20:11 69.8 °F /  21 °C 31.5 °F /  -0.3 °C 30.24in /  1023.9hPa Calm     24% 0.00in /  0mm 0.0 W/m2
20:17 69.3 °F /  20.7 °C 29.8 °F /  -1.2 °C 30.25in /  1024.3hPa Calm     23% 0.00in /  0mm 0.0 W/m2
20:23 69.1 °F /  20.6 °C 30.7 °F /  -0.7 °C 30.25in /  1024.3hPa Calm     24% 0.00in /  0mm 0.0 W/m2
20:29 68.7 °F /  20.4 °C 30.4 °F /  -0.9 °C 30.25in /  1024.3hPa Calm     24% 0.00in /  0mm 0.0 W/m2
20:35 68.4 °F /  20.2 °C 31.1 °F /  -0.5 °C 30.25in /  1024.3hPa Calm     25% 0.00in /  0mm 0.0 W/m2
20:42 68.0 °F /  20 °C 30.9 °F /  -0.6 °C 30.26in /  1024.6hPa Calm     25% 0.00in /  0mm 0.0 W/m2
20:48 67.5 °F /  19.7 °C 30.4 °F /  -0.9 °C 30.26in /  1024.6hPa Calm   1.0mph /  1.6km/h 25% 0.00in /  0mm 0.0 W/m2
20:54 67.3 °F /  19.6 °C 30.2 °F /  -1 °C 30.26in /  1024.6hPa Calm     25% 0.00in /  0mm 0.0 W/m2
21:00 67.3 °F /  19.6 °C 31.3 °F /  -0.4 °C 30.26in /  1024.6hPa Calm     26% 0.00in /  0mm 0.0 W/m2
21:06 66.9 °F /  19.4 °C 30.9 °F /  -0.6 °C 30.27in /  1024.9hPa Calm     26% 0.00in /  0mm 0.0 W/m2
21:12 66.7 °F /  19.3 °C 30.7 °F /  -0.7 °C 30.27in /  1024.9hPa Calm   1.0mph /  1.6km/h 26% 0.00in /  0mm 0.0 W/m2
21:18 66.7 °F /  19.3 °C 30.7 °F /  -0.7 °C 30.27in /  1024.9hPa Calm     26% 0.00in /  0mm 0.0 W/m2
21:24 66.6 °F /  19.2 °C 29.7 °F /  -1.3 °C 30.27in /  1024.9hPa Calm   1.0mph /  1.6km/h 25% 0.00in /  0mm 0.0 W/m2
21:31 66.7 °F /  19.3 °C 28.8 °F /  -1.8 °C 30.27in /  1024.9hPa SE 2.0mph /  3.2km/h 4.0mph /  6.4km/h 24% 0.00in /  0mm 0.0 W/m2
21:37 67.3 °F /  19.6 °C 27.1 °F /  -2.7 °C 30.27in /  1024.9hPa Calm   4.0mph /  6.4km/h 22% 0.00in /  0mm 0.0 W/m2
21:43 67.6 °F /  19.8 °C 26.2 °F /  -3.2 °C 30.27in /  1024.9hPa Calm   2.0mph /  3.2km/h 21% 0.00in /  0mm 0.0 W/m2
21:49 68.0 °F /  20 °C 26.6 °F /  -3 °C 30.27in /  1024.9hPa Calm   5.0mph /  8km/h 21% 0.00in /  0mm 0.0 W/m2
21:55 68.0 °F /  20 °C 26.6 °F /  -3 °C 30.27in /  1024.9hPa Calm   1.0mph /  1.6km/h 21% 0.00in /  0mm 0.0 W/m2
22:01 68.4 °F /  20.2 °C 25.7 °F /  -3.5 °C 30.27in /  1024.9hPa Calm   6.0mph /  9.7km/h 20% 0.00in /  0mm 0.0 W/m2
22:09 68.7 °F /  20.4 °C 26.1 °F /  -3.3 °C 30.27in /  1024.9hPa SE 2.0mph /  3.2km/h 2.0mph /  3.2km/h 20% 0.00in /  0mm 0.0 W/m2
22:16 69.3 °F /  20.7 °C 26.4 °F /  -3.1 °C 30.27in /  1024.9hPa Calm   4.0mph /  6.4km/h 20% 0.00in /  0mm 0.0 W/m2
22:22 69.6 °F /  20.9 °C 26.8 °F /  -2.9 °C 30.28in /  1025.3hPa South 2.0mph /  3.2km/h 4.0mph /  6.4km/h 20% 0.00in /  0mm 0.0 W/m2
22:28 70.2 °F /  21.2 °C 27.1 °F /  -2.7 °C 30.28in /  1025.3hPa ESE 2.0mph /  3.2km/h 7.0mph /  11.3km/h 20% 0.00in /  0mm 0.0 W/m2
22:34 70.5 °F /  21.4 °C 26.2 °F /  -3.2 °C 30.28in /  1025.3hPa ESE 2.0mph /  3.2km/h 5.0mph /  8km/h 19% 0.00in /  0mm 0.0 W/m2
22:40 71.1 °F /  21.7 °C 28.0 °F /  -2.2 °C 30.27in /  1024.9hPa Calm   4.0mph /  6.4km/h 20% 0.00in /  0mm 0.0 W/m2
22:46 71.2 °F /  21.8 °C 28.0 °F /  -2.2 °C 30.27in /  1024.9hPa SE 2.9mph /  4.7km/h 9.0mph /  14.5km/h 20% 0.00in /  0mm 0.0 W/m2
22:52 71.4 °F /  21.9 °C 28.2 °F /  -2.1 °C 30.28in /  1025.3hPa East 4.0mph /  6.4km/h 5.0mph /  8km/h 20% 0.00in /  0mm 0.0 W/m2
22:58 71.8 °F /  22.1 °C 28.6 °F /  -1.9 °C 30.28in /  1025.3hPa SSE 4.9mph /  7.9km/h 6.0mph /  9.7km/h 20% 0.00in /  0mm 0.0 W/m2
23:05 71.8 °F /  22.1 °C 28.6 °F /  -1.9 °C 30.28in /  1025.3hPa SSE 4.9mph /  7.9km/h 9.0mph /  14.5km/h 20% 0.00in /  0mm 0.0 W/m2
23:11 71.8 °F /  22.1 °C 28.6 °F /  -1.9 °C 30.28in /  1025.3hPa SSE 2.0mph /  3.2km/h 6.0mph /  9.7km/h 20% 0.00in /  0mm 0.0 W/m2
23:17 71.8 °F /  22.1 °C 28.6 °F /  -1.9 °C 30.28in /  1025.3hPa South 4.0mph /  6.4km/h 6.0mph /  9.7km/h 20% 0.00in /  0mm 0.0 W/m2
23:23 71.8 °F /  22.1 °C 29.7 °F /  -1.3 °C 30.28in /  1025.3hPa SSE 4.9mph /  7.9km/h 10.0mph /  16.1km/h 21% 0.00in /  0mm 0.0 W/m2
23:29 71.8 °F /  22.1 °C 29.7 °F /  -1.3 °C 30.28in /  1025.3hPa ESE 6.9mph /  11.1km/h 10.0mph /  16.1km/h 21% 0.00in /  0mm 0.0 W/m2
23:35 72.0 °F /  22.2 °C 29.8 °F /  -1.2 °C 30.28in /  1025.3hPa SSE 2.0mph /  3.2km/h 8.0mph /  12.9km/h 21% 0.00in /  0mm 0.0 W/m2
23:41 72.1 °F /  22.3 °C 30.0 °F /  -1.1 °C 30.28in /  1025.3hPa Calm   8.0mph /  12.9km/h 21% 0.00in /  0mm 0.0 W/m2
23:48 72.1 °F /  22.3 °C 30.0 °F /  -1.1 °C 30.27in /  1024.9hPa SE 6.0mph /  9.7km/h 7.0mph /  11.3km/h 21% 0.00in /  0mm 0.0 W/m2
Olympia, Windhoek, Namibia
Compliments of Weather Underground - 3 mb